AAL3049 KPHX-KSAN
Flight info
| Callsign | AAL3049 |
|---|---|
| Flight time | N/A |
| Altitude | 30000 |
| Route | FYRBD1 MOHAK J2 HOGGZ LUCKI1 |
| Aircraft | B38M/M-VGDW/C |
Departure
| Time | 2026-05-07 05:03 |
|---|---|
| Airport | Phoenix Sky Harbor International Airport (KPHX) |
Arrival
| Time | N/A |
|---|---|
| Airport | San Diego International Airport (KSAN) |
| Time | Latitude | Longitude | Altitude | Speed | Heading |
|---|---|---|---|---|---|
| 2026-05-07 03:47 | 33.43358 | -111.99979 | 1116 ft | 0 kts | 40° |
| 2026-05-07 03:57 | 33.43350 | -111.99987 | 1121 ft | 4 kts | 43° |
| 2026-05-07 03:58 | 33.43332 | -112.00011 | 1120 ft | 4 kts | 59° |
| 2026-05-07 03:58 | 33.43326 | -112.00036 | 1127 ft | 4 kts | 115° |
| 2026-05-07 03:58 | 33.43329 | -112.00042 | 1127 ft | 0 kts | 180° |
| 2026-05-07 03:59 | 33.43330 | -112.00042 | 1127 ft | 0 kts | 180° |
| 2026-05-07 04:58 | 33.43329 | -112.00042 | 1127 ft | 0 kts | 180° |
| 2026-05-07 04:58 | 33.43323 | -112.00042 | 1127 ft | 2 kts | 180° |
| 2026-05-07 04:58 | 33.43316 | -112.00042 | 1108 ft | 0 kts | 178° |
| 2026-05-07 04:59 | 33.43315 | -112.00041 | 1126 ft | 1 kts | 177° |
| 2026-05-07 04:59 | 33.43308 | -112.00039 | 1125 ft | 2 kts | 162° |
| 2026-05-07 04:59 | 33.43290 | -112.00020 | 1126 ft | 7 kts | 122° |
| 2026-05-07 05:00 | 33.43282 | -111.99920 | 1124 ft | 17 kts | 91° |
| 2026-05-07 05:00 | 33.43283 | -111.99764 | 1122 ft | 20 kts | 90° |
| 2026-05-07 05:00 | 33.43283 | -111.99592 | 1122 ft | 22 kts | 90° |
| 2026-05-07 05:00 | 33.43283 | -111.99406 | 1128 ft | 23 kts | 90° |
| 2026-05-07 05:01 | 33.43283 | -111.99333 | 1125 ft | 1 kts | 91° |
| 2026-05-07 05:01 | 33.43283 | -111.99314 | 1124 ft | 3 kts | 90° |
| 2026-05-07 05:01 | 33.43278 | -111.99278 | 1125 ft | 6 kts | 114° |
| 2026-05-07 05:01 | 33.43245 | -111.99250 | 1120 ft | 6 kts | 170° |
| 2026-05-07 05:02 | 33.43206 | -111.99267 | 1132 ft | 6 kts | 217° |
| 2026-05-07 05:02 | 33.43181 | -111.99295 | 1132 ft | 4 kts | 223° |
| 2026-05-07 05:02 | 33.43163 | -111.99315 | 1134 ft | 7 kts | 223° |
| 2026-05-07 05:02 | 33.43109 | -111.99414 | 1135 ft | 23 kts | 261° |
| 2026-05-07 05:03 | 33.43105 | -111.99937 | 1134 ft | 105 kts | 270° |
| 2026-05-07 05:03 | 33.43104 | -112.01119 | 1146 ft | 175 kts | 269° |
| 2026-05-07 05:03 | 33.43094 | -112.02714 | 1711 ft | 205 kts | 271° |
| 2026-05-07 05:03 | 33.43027 | -112.04407 | 2772 ft | 197 kts | 266° |
| 2026-05-07 05:04 | 33.42934 | -112.06147 | 3368 ft | 222 kts | 268° |
| 2026-05-07 05:04 | 33.42679 | -112.08045 | 3918 ft | 245 kts | 252° |
| 2026-05-07 05:04 | 33.42053 | -112.10015 | 4630 ft | 261 kts | 251° |
| 2026-05-07 05:04 | 33.41401 | -112.12097 | 5437 ft | 272 kts | 251° |
| 2026-05-07 05:05 | 33.40735 | -112.14235 | 6387 ft | 277 kts | 251° |
| 2026-05-07 05:05 | 33.39739 | -112.16248 | 7187 ft | 288 kts | 226° |
| 2026-05-07 05:05 | 33.38063 | -112.17565 | 8060 ft | 294 kts | 198° |
| 2026-05-07 05:05 | 33.36048 | -112.17864 | 8958 ft | 293 kts | 170° |
| 2026-05-07 05:06 | 33.34080 | -112.17263 | 9900 ft | 293 kts | 160° |
| 2026-05-07 05:06 | 33.32096 | -112.16563 | 10587 ft | 305 kts | 160° |
| 2026-05-07 05:06 | 33.30004 | -112.15827 | 11089 ft | 321 kts | 160° |
| 2026-05-07 05:06 | 33.27786 | -112.15234 | 11717 ft | 334 kts | 174° |
| 2026-05-07 05:07 | 33.25482 | -112.15638 | 12648 ft | 341 kts | 198° |
| 2026-05-07 05:07 | 33.23421 | -112.17105 | 13432 ft | 351 kts | 221° |
| 2026-05-07 05:07 | 33.21953 | -112.19448 | 14219 ft | 357 kts | 245° |
| 2026-05-07 05:07 | 33.21308 | -112.22267 | 15009 ft | 359 kts | 267° |
| 2026-05-07 05:08 | 33.21287 | -112.25258 | 15725 ft | 363 kts | 266° |
| 2026-05-07 05:08 | 33.20689 | -112.28185 | 16501 ft | 366 kts | 245° |
| 2026-05-07 05:08 | 33.19326 | -112.30751 | 17206 ft | 369 kts | 231° |
| 2026-05-07 05:08 | 33.17761 | -112.33199 | 17917 ft | 373 kts | 232° |
| 2026-05-07 05:09 | 33.16183 | -112.35671 | 18586 ft | 376 kts | 231° |
| 2026-05-07 05:09 | 33.14578 | -112.38166 | 19123 ft | 382 kts | 231° |
| 2026-05-07 05:09 | 33.12951 | -112.40689 | 19709 ft | 385 kts | 231° |
| 2026-05-07 05:09 | 33.11306 | -112.43236 | 20279 ft | 390 kts | 231° |
| 2026-05-07 05:10 | 33.09642 | -112.45810 | 20846 ft | 394 kts | 231° |
| 2026-05-07 05:10 | 33.07954 | -112.48408 | 21362 ft | 399 kts | 230° |
| 2026-05-07 05:10 | 33.06249 | -112.51037 | 21913 ft | 403 kts | 230° |
| 2026-05-07 05:10 | 33.04527 | -112.53694 | 22463 ft | 407 kts | 230° |
| 2026-05-07 05:11 | 33.02787 | -112.56377 | 23006 ft | 411 kts | 230° |
| 2026-05-07 05:11 | 33.01031 | -112.59084 | 23531 ft | 415 kts | 230° |
| 2026-05-07 05:11 | 32.99257 | -112.61816 | 23985 ft | 419 kts | 230° |
| 2026-05-07 05:11 | 32.97469 | -112.64570 | 24441 ft | 421 kts | 231° |
| 2026-05-07 05:12 | 32.95889 | -112.67527 | 24819 ft | 426 kts | 246° |
| 2026-05-07 05:12 | 32.95110 | -112.70913 | 25286 ft | 425 kts | 262° |
| 2026-05-07 05:12 | 32.94673 | -112.74407 | 25692 ft | 429 kts | 262° |
| 2026-05-07 05:12 | 32.94214 | -112.77930 | 26099 ft | 432 kts | 261° |
| 2026-05-07 05:13 | 32.93740 | -112.81478 | 26477 ft | 437 kts | 262° |
| 2026-05-07 05:13 | 32.93257 | -112.85069 | 26806 ft | 441 kts | 261° |